sensor_id;sensor_type;location;lat;lon;timestamp;P1;durP1;ratioP1;P2;durP2;ratioP2
5333;SDS011;2689;50.954;7.116;2022-09-29T00:00:50;5.97;;;5.17;;
5333;SDS011;2689;50.954;7.116;2022-09-29T00:03:18;6.53;;;4.40;;
5333;SDS011;2689;50.954;7.116;2022-09-29T00:05:46;4.70;;;4.30;;
5333;SDS011;2689;50.954;7.116;2022-09-29T00:08:14;4.30;;;3.90;;
5333;SDS011;2689;50.954;7.116;2022-09-29T00:10:42;6.40;;;4.43;;
5333;SDS011;2689;50.954;7.116;2022-09-29T00:13:09;5.77;;;5.07;;
5333;SDS011;2689;50.954;7.116;2022-09-29T00:15:36;5.60;;;5.10;;
5333;SDS011;2689;50.954;7.116;2022-09-29T00:18:04;6.63;;;5.07;;
5333;SDS011;2689;50.954;7.116;2022-09-29T00:20:32;6.20;;;4.67;;
5333;SDS011;2689;50.954;7.116;2022-09-29T00:23:00;5.83;;;5.27;;
5333;SDS011;2689;50.954;7.116;2022-09-29T00:25:27;5.30;;;4.80;;
5333;SDS011;2689;50.954;7.116;2022-09-29T00:27:54;6.60;;;4.23;;
5333;SDS011;2689;50.954;7.116;2022-09-29T00:30:20;6.10;;;5.10;;
5333;SDS011;2689;50.954;7.116;2022-09-29T00:32:47;6.60;;;5.20;;
5333;SDS011;2689;50.954;7.116;2022-09-29T00:35:16;4.87;;;4.37;;
5333;SDS011;2689;50.954;7.116;2022-09-29T00:37:42;6.03;;;4.40;;
5333;SDS011;2689;50.954;7.116;2022-09-29T00:40:10;4.60;;;4.20;;
5333;SDS011;2689;50.954;7.116;2022-09-29T00:42:37;7.77;;;5.10;;
5333;SDS011;2689;50.954;7.116;2022-09-29T00:45:10;7.77;;;4.43;;
5333;SDS011;2689;50.954;7.116;2022-09-29T00:47:40;5.57;;;4.60;;
5333;SDS011;2689;50.954;7.116;2022-09-29T00:50:11;9.57;;;4.97;;
5333;SDS011;2689;50.954;7.116;2022-09-29T00:52:43;5.00;;;4.50;;
5333;SDS011;2689;50.954;7.116;2022-09-29T00:55:16;8.77;;;5.00;;
5333;SDS011;2689;50.954;7.116;2022-09-29T00:57:47;5.97;;;4.67;;
5333;SDS011;2689;50.954;7.116;2022-09-29T01:00:17;6.07;;;4.43;;
5333;SDS011;2689;50.954;7.116;2022-09-29T01:02:45;6.43;;;4.77;;
5333;SDS011;2689;50.954;7.116;2022-09-29T01:05:16;8.07;;;5.00;;
5333;SDS011;2689;50.954;7.116;2022-09-29T01:07:48;5.50;;;5.00;;
5333;SDS011;2689;50.954;7.116;2022-09-29T01:10:15;6.00;;;4.47;;
5333;SDS011;2689;50.954;7.116;2022-09-29T01:12:44;5.43;;;4.80;;
5333;SDS011;2689;50.954;7.116;2022-09-29T01:15:12;5.90;;;5.03;;
5333;SDS011;2689;50.954;7.116;2022-09-29T01:17:41;7.40;;;5.13;;
5333;SDS011;2689;50.954;7.116;2022-09-29T01:20:10;6.90;;;5.30;;
5333;SDS011;2689;50.954;7.116;2022-09-29T01:22:46;5.87;;;5.37;;
5333;SDS011;2689;50.954;7.116;2022-09-29T01:25:43;7.13;;;5.10;;
5333;SDS011;2689;50.954;7.116;2022-09-29T01:31:18;6.20;;;5.00;;
5333;SDS011;2689;50.954;7.116;2022-09-29T01:33:54;5.43;;;4.93;;
5333;SDS011;2689;50.954;7.116;2022-09-29T01:36:28;5.10;;;4.47;;
5333;SDS011;2689;50.954;7.116;2022-09-29T01:39:09;6.87;;;5.30;;
5333;SDS011;2689;50.954;7.116;2022-09-29T01:41:40;5.93;;;4.73;;
5333;SDS011;2689;50.954;7.116;2022-09-29T01:44:13;5.40;;;4.90;;
5333;SDS011;2689;50.954;7.116;2022-09-29T01:46:49;5.37;;;4.87;;
5333;SDS011;2689;50.954;7.116;2022-09-29T01:49:19;5.23;;;4.73;;
5333;SDS011;2689;50.954;7.116;2022-09-29T01:51:50;4.73;;;4.33;;
5333;SDS011;2689;50.954;7.116;2022-09-29T01:54:20;9.53;;;4.90;;
5333;SDS011;2689;50.954;7.116;2022-09-29T01:56:50;6.30;;;4.90;;
5333;SDS011;2689;50.954;7.116;2022-09-29T01:59:21;7.63;;;5.23;;
5333;SDS011;2689;50.954;7.116;2022-09-29T02:01:53;6.13;;;5.03;;
5333;SDS011;2689;50.954;7.116;2022-09-29T02:04:26;7.03;;;4.70;;
5333;SDS011;2689;50.954;7.116;2022-09-29T02:06:58;5.80;;;4.80;;
5333;SDS011;2689;50.954;7.116;2022-09-29T02:09:29;9.87;;;4.43;;
5333;SDS011;2689;50.954;7.116;2022-09-29T02:12:00;5.13;;;4.73;;
5333;SDS011;2689;50.954;7.116;2022-09-29T02:14:31;5.73;;;4.83;;
5333;SDS011;2689;50.954;7.116;2022-09-29T02:17:03;5.17;;;4.70;;
5333;SDS011;2689;50.954;7.116;2022-09-29T02:19:36;5.40;;;4.90;;
5333;SDS011;2689;50.954;7.116;2022-09-29T02:22:06;5.27;;;4.77;;
5333;SDS011;2689;50.954;7.116;2022-09-29T02:24:33;5.97;;;5.30;;
5333;SDS011;2689;50.954;7.116;2022-09-29T02:27:00;5.87;;;5.27;;
5333;SDS011;2689;50.954;7.116;2022-09-29T02:29:27;6.50;;;4.97;;
5333;SDS011;2689;50.954;7.116;2022-09-29T02:31:54;6.87;;;5.93;;
5333;SDS011;2689;50.954;7.116;2022-09-29T02:34:27;7.73;;;5.87;;
5333;SDS011;2689;50.954;7.116;2022-09-29T02:36:57;6.20;;;5.57;;
5333;SDS011;2689;50.954;7.116;2022-09-29T02:39:38;7.90;;;6.63;;
5333;SDS011;2689;50.954;7.116;2022-09-29T02:42:13;6.57;;;5.80;;
5333;SDS011;2689;50.954;7.116;2022-09-29T02:44:50;6.67;;;6.00;;
5333;SDS011;2689;50.954;7.116;2022-09-29T02:47:31;6.97;;;6.27;;
5333;SDS011;2689;50.954;7.116;2022-09-29T02:50:20;6.97;;;5.93;;
5333;SDS011;2689;50.954;7.116;2022-09-29T02:53:03;6.50;;;5.90;;
5333;SDS011;2689;50.954;7.116;2022-09-29T02:55:36;10.10;;;6.60;;
5333;SDS011;2689;50.954;7.116;2022-09-29T02:58:09;8.50;;;5.83;;
5333;SDS011;2689;50.954;7.116;2022-09-29T03:00:41;6.37;;;5.77;;
5333;SDS011;2689;50.954;7.116;2022-09-29T03:03:08;8.67;;;5.80;;
5333;SDS011;2689;50.954;7.116;2022-09-29T03:05:37;11.47;;;5.90;;
5333;SDS011;2689;50.954;7.116;2022-09-29T03:08:04;7.90;;;5.87;;
5333;SDS011;2689;50.954;7.116;2022-09-29T03:10:30;6.90;;;5.60;;
5333;SDS011;2689;50.954;7.116;2022-09-29T03:12:57;7.10;;;5.97;;
5333;SDS011;2689;50.954;7.116;2022-09-29T03:15:24;9.60;;;5.70;;
5333;SDS011;2689;50.954;7.116;2022-09-29T03:17:53;5.90;;;5.40;;
5333;SDS011;2689;50.954;7.116;2022-09-29T03:20:21;5.60;;;5.10;;
5333;SDS011;2689;50.954;7.116;2022-09-29T03:22:49;5.93;;;5.43;;
5333;SDS011;2689;50.954;7.116;2022-09-29T03:25:20;6.90;;;6.20;;
5333;SDS011;2689;50.954;7.116;2022-09-29T03:27:48;5.37;;;4.87;;
5333;SDS011;2689;50.954;7.116;2022-09-29T03:30:15;8.13;;;5.13;;
5333;SDS011;2689;50.954;7.116;2022-09-29T03:32:42;6.00;;;5.50;;
5333;SDS011;2689;50.954;7.116;2022-09-29T03:35:09;5.47;;;4.93;;
5333;SDS011;2689;50.954;7.116;2022-09-29T03:37:36;6.20;;;5.30;;
5333;SDS011;2689;50.954;7.116;2022-09-29T03:40:05;6.20;;;5.60;;
5333;SDS011;2689;50.954;7.116;2022-09-29T03:42:32;6.73;;;6.07;;
5333;SDS011;2689;50.954;7.116;2022-09-29T03:44:59;6.67;;;5.47;;
5333;SDS011;2689;50.954;7.116;2022-09-29T03:47:26;6.83;;;6.03;;
5333;SDS011;2689;50.954;7.116;2022-09-29T03:49:53;6.20;;;5.60;;
5333;SDS011;2689;50.954;7.116;2022-09-29T03:52:20;8.53;;;6.37;;
5333;SDS011;2689;50.954;7.116;2022-09-29T03:54:46;9.30;;;6.30;;
5333;SDS011;2689;50.954;7.116;2022-09-29T03:57:14;6.17;;;5.57;;
5333;SDS011;2689;50.954;7.116;2022-09-29T03:59:41;6.40;;;5.80;;
5333;SDS011;2689;50.954;7.116;2022-09-29T04:02:08;7.93;;;5.37;;
5333;SDS011;2689;50.954;7.116;2022-09-29T04:04:34;6.57;;;5.43;;
5333;SDS011;2689;50.954;7.116;2022-09-29T04:07:01;5.77;;;5.27;;
5333;SDS011;2689;50.954;7.116;2022-09-29T04:09:28;6.17;;;5.57;;
5333;SDS011;2689;50.954;7.116;2022-09-29T04:11:55;6.33;;;5.73;;
5333;SDS011;2689;50.954;7.116;2022-09-29T04:14:23;10.17;;;5.90;;
5333;SDS011;2689;50.954;7.116;2022-09-29T04:16:50;6.23;;;5.43;;
5333;SDS011;2689;50.954;7.116;2022-09-29T04:19:16;5.87;;;5.27;;
5333;SDS011;2689;50.954;7.116;2022-09-29T04:21:43;8.00;;;5.70;;
5333;SDS011;2689;50.954;7.116;2022-09-29T04:24:11;6.77;;;6.00;;
5333;SDS011;2689;50.954;7.116;2022-09-29T04:26:37;8.87;;;6.20;;
5333;SDS011;2689;50.954;7.116;2022-09-29T04:29:04;6.47;;;5.20;;
5333;SDS011;2689;50.954;7.116;2022-09-29T04:31:33;5.20;;;4.70;;
5333;SDS011;2689;50.954;7.116;2022-09-29T04:33:59;7.33;;;6.10;;
5333;SDS011;2689;50.954;7.116;2022-09-29T04:36:26;10.40;;;7.27;;
5333;SDS011;2689;50.954;7.116;2022-09-29T04:38:53;5.90;;;5.20;;
5333;SDS011;2689;50.954;7.116;2022-09-29T04:41:20;5.87;;;5.23;;
5333;SDS011;2689;50.954;7.116;2022-09-29T04:43:46;5.80;;;5.20;;
5333;SDS011;2689;50.954;7.116;2022-09-29T04:46:13;6.30;;;5.70;;
5333;SDS011;2689;50.954;7.116;2022-09-29T04:48:41;7.20;;;5.40;;
5333;SDS011;2689;50.954;7.116;2022-09-29T04:51:08;5.93;;;5.37;;
5333;SDS011;2689;50.954;7.116;2022-09-29T04:53:35;9.50;;;5.50;;
5333;SDS011;2689;50.954;7.116;2022-09-29T04:56:05;6.43;;;5.10;;
5333;SDS011;2689;50.954;7.116;2022-09-29T04:58:33;10.13;;;5.47;;
5333;SDS011;2689;50.954;7.116;2022-09-29T05:01:03;5.37;;;4.97;;
5333;SDS011;2689;50.954;7.116;2022-09-29T05:03:31;6.30;;;5.63;;
5333;SDS011;2689;50.954;7.116;2022-09-29T05:06:00;6.47;;;5.23;;
5333;SDS011;2689;50.954;7.116;2022-09-29T05:08:26;5.80;;;4.80;;
5333;SDS011;2689;50.954;7.116;2022-09-29T05:10:53;5.57;;;5.07;;
5333;SDS011;2689;50.954;7.116;2022-09-29T05:13:20;5.77;;;5.17;;
5333;SDS011;2689;50.954;7.116;2022-09-29T05:15:47;5.67;;;5.10;;
5333;SDS011;2689;50.954;7.116;2022-09-29T05:18:13;6.93;;;4.50;;
5333;SDS011;2689;50.954;7.116;2022-09-29T05:20:40;7.73;;;4.93;;
5333;SDS011;2689;50.954;7.116;2022-09-29T05:23:08;5.60;;;5.10;;
5333;SDS011;2689;50.954;7.116;2022-09-29T05:25:35;5.87;;;4.83;;
5333;SDS011;2689;50.954;7.116;2022-09-29T05:28:02;6.77;;;4.93;;
5333;SDS011;2689;50.954;7.116;2022-09-29T05:30:29;5.93;;;4.90;;
5333;SDS011;2689;50.954;7.116;2022-09-29T05:32:56;5.27;;;4.73;;
5333;SDS011;2689;50.954;7.116;2022-09-29T05:35:22;6.20;;;4.67;;
5333;SDS011;2689;50.954;7.116;2022-09-29T05:37:49;5.70;;;4.50;;
5333;SDS011;2689;50.954;7.116;2022-09-29T05:40:17;5.07;;;4.43;;
5333;SDS011;2689;50.954;7.116;2022-09-29T05:42:48;10.40;;;4.97;;
5333;SDS011;2689;50.954;7.116;2022-09-29T05:45:15;5.80;;;4.27;;
5333;SDS011;2689;50.954;7.116;2022-09-29T05:47:42;5.43;;;4.90;;
5333;SDS011;2689;50.954;7.116;2022-09-29T05:50:10;4.73;;;4.33;;
5333;SDS011;2689;50.954;7.116;2022-09-29T05:52:37;5.43;;;4.83;;
5333;SDS011;2689;50.954;7.116;2022-09-29T05:55:05;5.90;;;4.37;;
5333;SDS011;2689;50.954;7.116;2022-09-29T05:57:35;5.50;;;4.93;;
5333;SDS011;2689;50.954;7.116;2022-09-29T06:00:02;6.17;;;5.37;;
5333;SDS011;2689;50.954;7.116;2022-09-29T06:02:30;4.97;;;4.47;;
5333;SDS011;2689;50.954;7.116;2022-09-29T06:04:58;6.33;;;5.73;;
5333;SDS011;2689;50.954;7.116;2022-09-29T06:07:24;5.20;;;4.70;;
5333;SDS011;2689;50.954;7.116;2022-09-29T06:09:51;5.33;;;4.83;;
5333;SDS011;2689;50.954;7.116;2022-09-29T06:12:18;4.50;;;4.10;;
5333;SDS011;2689;50.954;7.116;2022-09-29T06:14:47;8.43;;;4.57;;
5333;SDS011;2689;50.954;7.116;2022-09-29T06:17:14;5.30;;;4.60;;
5333;SDS011;2689;50.954;7.116;2022-09-29T06:19:41;5.13;;;4.53;;
5333;SDS011;2689;50.954;7.116;2022-09-29T06:22:07;5.57;;;5.07;;
5333;SDS011;2689;50.954;7.116;2022-09-29T06:24:35;5.03;;;4.53;;
5333;SDS011;2689;50.954;7.116;2022-09-29T06:27:02;5.77;;;5.17;;
5333;SDS011;2689;50.954;7.116;2022-09-29T06:29:29;7.17;;;5.40;;
5333;SDS011;2689;50.954;7.116;2022-09-29T06:31:57;7.07;;;4.97;;
5333;SDS011;2689;50.954;7.116;2022-09-29T06:34:24;5.60;;;4.83;;
5333;SDS011;2689;50.954;7.116;2022-09-29T06:36:51;5.83;;;5.27;;
5333;SDS011;2689;50.954;7.116;2022-09-29T06:39:35;7.07;;;5.30;;
5333;SDS011;2689;50.954;7.116;2022-09-29T06:42:02;10.63;;;5.67;;
5333;SDS011;2689;50.954;7.116;2022-09-29T06:44:29;6.30;;;5.50;;
5333;SDS011;2689;50.954;7.116;2022-09-29T06:46:57;7.50;;;5.10;;
5333;SDS011;2689;50.954;7.116;2022-09-29T06:49:24;6.60;;;5.13;;
5333;SDS011;2689;50.954;7.116;2022-09-29T06:51:51;5.60;;;5.00;;
5333;SDS011;2689;50.954;7.116;2022-09-29T06:54:19;5.87;;;5.20;;
5333;SDS011;2689;50.954;7.116;2022-09-29T06:56:49;6.60;;;4.50;;
5333;SDS011;2689;50.954;7.116;2022-09-29T06:59:17;6.50;;;5.63;;
5333;SDS011;2689;50.954;7.116;2022-09-29T07:01:44;5.40;;;4.90;;
5333;SDS011;2689;50.954;7.116;2022-09-29T07:04:15;6.00;;;4.90;;
5333;SDS011;2689;50.954;7.116;2022-09-29T07:06:43;4.90;;;4.50;;
5333;SDS011;2689;50.954;7.116;2022-09-29T07:09:10;4.70;;;4.30;;
5333;SDS011;2689;50.954;7.116;2022-09-29T07:11:40;5.53;;;4.03;;
5333;SDS011;2689;50.954;7.116;2022-09-29T07:14:10;5.70;;;3.33;;
5333;SDS011;2689;50.954;7.116;2022-09-29T07:16:37;5.23;;;4.20;;
5333;SDS011;2689;50.954;7.116;2022-09-29T07:19:04;6.13;;;4.07;;
5333;SDS011;2689;50.954;7.116;2022-09-29T07:21:32;4.20;;;3.80;;
5333;SDS011;2689;50.954;7.116;2022-09-29T07:23:59;3.97;;;3.67;;
5333;SDS011;2689;50.954;7.116;2022-09-29T07:26:26;5.67;;;4.40;;
5333;SDS011;2689;50.954;7.116;2022-09-29T07:28:53;4.40;;;3.80;;
5333;SDS011;2689;50.954;7.116;2022-09-29T07:31:20;4.43;;;4.00;;
5333;SDS011;2689;50.954;7.116;2022-09-29T07:33:48;4.97;;;4.47;;
5333;SDS011;2689;50.954;7.116;2022-09-29T07:36:17;4.20;;;3.70;;
5333;SDS011;2689;50.954;7.116;2022-09-29T07:38:46;3.63;;;3.30;;
5333;SDS011;2689;50.954;7.116;2022-09-29T07:41:14;3.43;;;3.13;;
5333;SDS011;2689;50.954;7.116;2022-09-29T07:43:42;4.37;;;3.10;;
5333;SDS011;2689;50.954;7.116;2022-09-29T07:46:09;4.17;;;3.23;;
5333;SDS011;2689;50.954;7.116;2022-09-29T07:48:36;3.70;;;2.80;;
5333;SDS011;2689;50.954;7.116;2022-09-29T07:51:04;4.50;;;3.00;;
5333;SDS011;2689;50.954;7.116;2022-09-29T07:53:33;6.97;;;3.30;;
5333;SDS011;2689;50.954;7.116;2022-09-29T07:56:05;5.97;;;3.10;;
5333;SDS011;2689;50.954;7.116;2022-09-29T07:58:34;3.80;;;3.20;;
5333;SDS011;2689;50.954;7.116;2022-09-29T08:01:02;3.63;;;2.73;;
5333;SDS011;2689;50.954;7.116;2022-09-29T08:03:30;6.77;;;3.03;;
5333;SDS011;2689;50.954;7.116;2022-09-29T08:05:57;5.23;;;2.80;;
5333;SDS011;2689;50.954;7.116;2022-09-29T08:08:24;7.07;;;2.73;;
5333;SDS011;2689;50.954;7.116;2022-09-29T08:10:51;2.87;;;2.50;;
5333;SDS011;2689;50.954;7.116;2022-09-29T08:13:27;4.53;;;2.53;;
5333;SDS011;2689;50.954;7.116;2022-09-29T08:15:56;4.27;;;2.47;;
5333;SDS011;2689;50.954;7.116;2022-09-29T08:18:23;10.33;;;2.87;;
5333;SDS011;2689;50.954;7.116;2022-09-29T08:20:50;3.27;;;2.60;;
5333;SDS011;2689;50.954;7.116;2022-09-29T08:23:18;2.63;;;2.40;;
5333;SDS011;2689;50.954;7.116;2022-09-29T08:25:45;3.40;;;2.47;;
5333;SDS011;2689;50.954;7.116;2022-09-29T08:28:12;3.73;;;2.33;;
5333;SDS011;2689;50.954;7.116;2022-09-29T08:30:40;4.77;;;2.10;;
5333;SDS011;2689;50.954;7.116;2022-09-29T08:33:07;2.20;;;2.00;;
5333;SDS011;2689;50.954;7.116;2022-09-29T08:35:38;3.17;;;2.30;;
5333;SDS011;2689;50.954;7.116;2022-09-29T08:38:06;4.20;;;2.30;;
5333;SDS011;2689;50.954;7.116;2022-09-29T08:40:32;2.13;;;1.80;;
5333;SDS011;2689;50.954;7.116;2022-09-29T08:43:02;4.30;;;2.60;;
5333;SDS011;2689;50.954;7.116;2022-09-29T08:45:36;3.43;;;2.17;;
5333;SDS011;2689;50.954;7.116;2022-09-29T08:48:09;4.60;;;2.03;;
5333;SDS011;2689;50.954;7.116;2022-09-29T08:50:41;4.47;;;2.17;;
5333;SDS011;2689;50.954;7.116;2022-09-29T08:53:13;3.90;;;2.50;;
5333;SDS011;2689;50.954;7.116;2022-09-29T08:55:46;3.13;;;2.30;;
5333;SDS011;2689;50.954;7.116;2022-09-29T08:58:17;2.60;;;2.20;;
5333;SDS011;2689;50.954;7.116;2022-09-29T09:00:48;3.63;;;2.47;;
5333;SDS011;2689;50.954;7.116;2022-09-29T09:03:35;6.13;;;2.57;;
5333;SDS011;2689;50.954;7.116;2022-09-29T09:06:18;6.93;;;2.80;;
5333;SDS011;2689;50.954;7.116;2022-09-29T09:11:42;3.50;;;2.70;;
5333;SDS011;2689;50.954;7.116;2022-09-29T09:14:24;5.13;;;2.33;;
5333;SDS011;2689;50.954;7.116;2022-09-29T09:17:08;3.40;;;2.20;;
5333;SDS011;2689;50.954;7.116;2022-09-29T09:19:52;6.40;;;2.20;;
5333;SDS011;2689;50.954;7.116;2022-09-29T09:22:37;2.70;;;2.20;;
5333;SDS011;2689;50.954;7.116;2022-09-29T09:25:13;3.23;;;2.20;;
5333;SDS011;2689;50.954;7.116;2022-09-29T09:27:47;4.10;;;2.37;;
5333;SDS011;2689;50.954;7.116;2022-09-29T09:30:19;3.40;;;2.17;;
5333;SDS011;2689;50.954;7.116;2022-09-29T09:32:49;3.40;;;2.30;;
5333;SDS011;2689;50.954;7.116;2022-09-29T09:35:24;2.13;;;1.83;;
5333;SDS011;2689;50.954;7.116;2022-09-29T09:37:56;5.50;;;2.43;;
5333;SDS011;2689;50.954;7.116;2022-09-29T09:40:28;3.90;;;2.27;;
5333;SDS011;2689;50.954;7.116;2022-09-29T09:43:03;3.80;;;2.30;;
5333;SDS011;2689;50.954;7.116;2022-09-29T09:45:35;3.13;;;2.10;;
5333;SDS011;2689;50.954;7.116;2022-09-29T09:48:09;2.37;;;1.73;;
5333;SDS011;2689;50.954;7.116;2022-09-29T09:50:40;4.60;;;2.10;;
5333;SDS011;2689;50.954;7.116;2022-09-29T09:53:09;4.30;;;2.20;;
5333;SDS011;2689;50.954;7.116;2022-09-29T09:55:40;2.47;;;1.53;;
5333;SDS011;2689;50.954;7.116;2022-09-29T09:58:11;2.57;;;1.80;;
5333;SDS011;2689;50.954;7.116;2022-09-29T10:00:59;3.10;;;1.97;;
5333;SDS011;2689;50.954;7.116;2022-09-29T10:03:27;7.73;;;2.10;;
5333;SDS011;2689;50.954;7.116;2022-09-29T10:05:55;4.53;;;2.30;;
5333;SDS011;2689;50.954;7.116;2022-09-29T10:08:23;4.13;;;2.03;;
5333;SDS011;2689;50.954;7.116;2022-09-29T10:10:51;3.80;;;1.90;;
5333;SDS011;2689;50.954;7.116;2022-09-29T10:13:19;3.30;;;1.73;;
5333;SDS011;2689;50.954;7.116;2022-09-29T10:15:46;4.50;;;2.30;;
5333;SDS011;2689;50.954;7.116;2022-09-29T10:18:21;6.10;;;2.23;;
5333;SDS011;2689;50.954;7.116;2022-09-29T10:20:51;2.97;;;2.17;;
5333;SDS011;2689;50.954;7.116;2022-09-29T10:23:25;4.70;;;2.10;;
5333;SDS011;2689;50.954;7.116;2022-09-29T10:25:56;4.53;;;1.90;;
5333;SDS011;2689;50.954;7.116;2022-09-29T10:28:27;5.73;;;2.40;;
5333;SDS011;2689;50.954;7.116;2022-09-29T10:31:02;3.80;;;2.17;;
5333;SDS011;2689;50.954;7.116;2022-09-29T10:33:46;7.20;;;2.23;;
5333;SDS011;2689;50.954;7.116;2022-09-29T10:36:16;4.40;;;2.30;;
5333;SDS011;2689;50.954;7.116;2022-09-29T10:38:45;3.00;;;1.97;;
5333;SDS011;2689;50.954;7.116;2022-09-29T10:41:14;5.03;;;2.07;;
5333;SDS011;2689;50.954;7.116;2022-09-29T10:43:43;5.40;;;2.23;;
5333;SDS011;2689;50.954;7.116;2022-09-29T10:49:13;4.40;;;2.30;;
5333;SDS011;2689;50.954;7.116;2022-09-29T10:51:47;5.30;;;2.90;;
5333;SDS011;2689;50.954;7.116;2022-09-29T10:54:20;3.80;;;2.43;;
5333;SDS011;2689;50.954;7.116;2022-09-29T10:56:50;6.40;;;2.57;;
5333;SDS011;2689;50.954;7.116;2022-09-29T10:59:18;5.83;;;2.60;;
5333;SDS011;2689;50.954;7.116;2022-09-29T11:01:45;4.73;;;2.30;;
5333;SDS011;2689;50.954;7.116;2022-09-29T11:04:17;6.40;;;2.53;;
5333;SDS011;2689;50.954;7.116;2022-09-29T11:06:47;5.80;;;3.63;;
5333;SDS011;2689;50.954;7.116;2022-09-29T11:09:28;3.93;;;2.60;;
5333;SDS011;2689;50.954;7.116;2022-09-29T11:12:00;4.00;;;2.70;;
5333;SDS011;2689;50.954;7.116;2022-09-29T11:14:28;2.37;;;1.90;;
5333;SDS011;2689;50.954;7.116;2022-09-29T11:16:57;4.30;;;2.83;;
5333;SDS011;2689;50.954;7.116;2022-09-29T11:19:26;3.50;;;2.27;;
5333;SDS011;2689;50.954;7.116;2022-09-29T11:22:05;3.73;;;2.17;;
5333;SDS011;2689;50.954;7.116;2022-09-29T11:27:42;3.70;;;2.00;;
5333;SDS011;2689;50.954;7.116;2022-09-29T11:30:18;4.13;;;1.50;;
5333;SDS011;2689;50.954;7.116;2022-09-29T11:32:50;3.97;;;1.57;;
5333;SDS011;2689;50.954;7.116;2022-09-29T11:35:36;3.33;;;1.77;;
5333;SDS011;2689;50.954;7.116;2022-09-29T11:38:20;9.17;;;6.43;;
5333;SDS011;2689;50.954;7.116;2022-09-29T11:41:01;10.63;;;6.10;;
5333;SDS011;2689;50.954;7.116;2022-09-29T11:43:42;4.90;;;2.47;;
5333;SDS011;2689;50.954;7.116;2022-09-29T11:46:25;4.93;;;1.93;;
5333;SDS011;2689;50.954;7.116;2022-09-29T11:49:07;4.00;;;1.80;;
5333;SDS011;2689;50.954;7.116;2022-09-29T11:51:57;4.47;;;1.10;;
5333;SDS011;2689;50.954;7.116;2022-09-29T11:54:46;2.77;;;1.00;;
5333;SDS011;2689;50.954;7.116;2022-09-29T11:57:25;2.30;;;1.13;;
5333;SDS011;2689;50.954;7.116;2022-09-29T12:00:03;2.23;;;1.10;;
5333;SDS011;2689;50.954;7.116;2022-09-29T12:02:38;2.90;;;1.33;;
5333;SDS011;2689;50.954;7.116;2022-09-29T12:05:20;4.83;;;1.20;;
5333;SDS011;2689;50.954;7.116;2022-09-29T12:07:56;5.40;;;1.27;;
5333;SDS011;2689;50.954;7.116;2022-09-29T12:10:43;2.47;;;1.10;;
5333;SDS011;2689;50.954;7.116;2022-09-29T12:13:19;2.87;;;1.23;;
5333;SDS011;2689;50.954;7.116;2022-09-29T12:15:52;2.27;;;1.00;;
5333;SDS011;2689;50.954;7.116;2022-09-29T12:18:23;5.20;;;2.77;;
5333;SDS011;2689;50.954;7.116;2022-09-29T12:20:53;5.80;;;1.10;;
5333;SDS011;2689;50.954;7.116;2022-09-29T12:23:23;2.00;;;0.90;;
5333;SDS011;2689;50.954;7.116;2022-09-29T12:25:55;2.10;;;0.90;;
5333;SDS011;2689;50.954;7.116;2022-09-29T12:28:26;2.10;;;1.00;;
5333;SDS011;2689;50.954;7.116;2022-09-29T12:30:58;2.50;;;1.03;;
5333;SDS011;2689;50.954;7.116;2022-09-29T12:33:28;2.27;;;1.30;;
5333;SDS011;2689;50.954;7.116;2022-09-29T12:36:02;2.13;;;1.00;;
5333;SDS011;2689;50.954;7.116;2022-09-29T12:38:54;1.77;;;0.87;;
5333;SDS011;2689;50.954;7.116;2022-09-29T12:41:28;1.70;;;1.20;;
5333;SDS011;2689;50.954;7.116;2022-09-29T12:43:59;5.33;;;1.00;;
5333;SDS011;2689;50.954;7.116;2022-09-29T12:46:35;2.37;;;1.20;;
5333;SDS011;2689;50.954;7.116;2022-09-29T12:49:07;2.93;;;1.20;;
5333;SDS011;2689;50.954;7.116;2022-09-29T12:51:43;1.93;;;0.90;;
5333;SDS011;2689;50.954;7.116;2022-09-29T12:54:15;2.70;;;1.23;;
5333;SDS011;2689;50.954;7.116;2022-09-29T12:56:47;4.97;;;1.30;;
5333;SDS011;2689;50.954;7.116;2022-09-29T12:59:24;2.30;;;1.23;;
5333;SDS011;2689;50.954;7.116;2022-09-29T13:01:56;1.77;;;1.03;;
5333;SDS011;2689;50.954;7.116;2022-09-29T13:04:45;2.27;;;1.00;;
5333;SDS011;2689;50.954;7.116;2022-09-29T13:13:18;4.93;;;2.10;;
5333;SDS011;2689;50.954;7.116;2022-09-29T13:16:10;2.20;;;1.13;;
5333;SDS011;2689;50.954;7.116;2022-09-29T13:21:52;3.03;;;1.00;;
5333;SDS011;2689;50.954;7.116;2022-09-29T13:24:34;2.87;;;1.03;;
5333;SDS011;2689;50.954;7.116;2022-09-29T13:27:15;2.40;;;1.20;;
5333;SDS011;2689;50.954;7.116;2022-09-29T13:29:51;4.03;;;1.43;;
5333;SDS011;2689;50.954;7.116;2022-09-29T13:32:21;2.33;;;1.27;;
5333;SDS011;2689;50.954;7.116;2022-09-29T13:34:51;3.37;;;1.10;;
5333;SDS011;2689;50.954;7.116;2022-09-29T13:37:20;3.93;;;1.10;;
5333;SDS011;2689;50.954;7.116;2022-09-29T13:39:51;1.80;;;1.07;;
5333;SDS011;2689;50.954;7.116;2022-09-29T13:45:15;1.83;;;0.97;;
5333;SDS011;2689;50.954;7.116;2022-09-29T13:51:00;2.23;;;0.90;;
5333;SDS011;2689;50.954;7.116;2022-09-29T13:53:52;2.33;;;1.60;;
5333;SDS011;2689;50.954;7.116;2022-09-29T13:56:47;1.83;;;1.13;;
5333;SDS011;2689;50.954;7.116;2022-09-29T13:59:17;3.30;;;1.93;;
5333;SDS011;2689;50.954;7.116;2022-09-29T14:01:47;2.70;;;1.33;;
5333;SDS011;2689;50.954;7.116;2022-09-29T14:10:05;3.07;;;1.60;;
5333;SDS011;2689;50.954;7.116;2022-09-29T14:12:44;2.57;;;1.30;;
5333;SDS011;2689;50.954;7.116;2022-09-29T14:15:17;2.97;;;1.83;;
5333;SDS011;2689;50.954;7.116;2022-09-29T14:17:45;5.23;;;1.23;;
5333;SDS011;2689;50.954;7.116;2022-09-29T14:20:18;2.30;;;1.13;;
5333;SDS011;2689;50.954;7.116;2022-09-29T14:22:57;2.30;;;1.30;;
5333;SDS011;2689;50.954;7.116;2022-09-29T14:28:18;2.70;;;2.07;;
5333;SDS011;2689;50.954;7.116;2022-09-29T14:31:04;2.53;;;1.27;;
5333;SDS011;2689;50.954;7.116;2022-09-29T14:33:46;3.40;;;1.57;;
5333;SDS011;2689;50.954;7.116;2022-09-29T14:36:17;2.80;;;1.77;;
5333;SDS011;2689;50.954;7.116;2022-09-29T14:38:47;7.67;;;1.30;;
5333;SDS011;2689;50.954;7.116;2022-09-29T14:41:21;2.53;;;1.40;;
5333;SDS011;2689;50.954;7.116;2022-09-29T14:43:51;8.73;;;1.70;;
5333;SDS011;2689;50.954;7.116;2022-09-29T14:46:29;4.10;;;1.43;;
5333;SDS011;2689;50.954;7.116;2022-09-29T14:49:35;3.03;;;1.23;;
5333;SDS011;2689;50.954;7.116;2022-09-29T14:52:42;3.33;;;1.50;;
5333;SDS011;2689;50.954;7.116;2022-09-29T14:55:19;6.50;;;1.40;;
5333;SDS011;2689;50.954;7.116;2022-09-29T14:57:56;2.77;;;1.37;;
5333;SDS011;2689;50.954;7.116;2022-09-29T15:00:33;4.60;;;1.27;;
5333;SDS011;2689;50.954;7.116;2022-09-29T15:03:17;2.90;;;1.63;;
5333;SDS011;2689;50.954;7.116;2022-09-29T15:06:01;2.53;;;1.50;;
5333;SDS011;2689;50.954;7.116;2022-09-29T15:08:29;3.90;;;1.70;;
5333;SDS011;2689;50.954;7.116;2022-09-29T15:10:58;2.70;;;1.93;;
5333;SDS011;2689;50.954;7.116;2022-09-29T15:13:25;4.30;;;1.70;;
5333;SDS011;2689;50.954;7.116;2022-09-29T15:15:56;2.97;;;1.60;;
5333;SDS011;2689;50.954;7.116;2022-09-29T15:18:34;3.50;;;1.90;;
5333;SDS011;2689;50.954;7.116;2022-09-29T15:21:14;2.50;;;1.83;;
5333;SDS011;2689;50.954;7.116;2022-09-29T15:23:57;6.97;;;3.13;;
5333;SDS011;2689;50.954;7.116;2022-09-29T15:26:37;4.07;;;2.03;;
5333;SDS011;2689;50.954;7.116;2022-09-29T15:29:05;3.10;;;1.80;;
5333;SDS011;2689;50.954;7.116;2022-09-29T15:31:33;4.53;;;2.03;;
5333;SDS011;2689;50.954;7.116;2022-09-29T15:34:02;2.80;;;2.03;;
5333;SDS011;2689;50.954;7.116;2022-09-29T15:36:31;4.80;;;3.83;;
5333;SDS011;2689;50.954;7.116;2022-09-29T15:39:01;5.07;;;2.40;;
5333;SDS011;2689;50.954;7.116;2022-09-29T15:41:31;16.90;;;3.60;;
5333;SDS011;2689;50.954;7.116;2022-09-29T15:44:00;6.00;;;2.50;;
5333;SDS011;2689;50.954;7.116;2022-09-29T15:46:35;7.63;;;2.70;;
5333;SDS011;2689;50.954;7.116;2022-09-29T15:49:06;5.37;;;2.50;;
5333;SDS011;2689;50.954;7.116;2022-09-29T15:51:36;5.47;;;2.40;;
5333;SDS011;2689;50.954;7.116;2022-09-29T15:54:04;6.07;;;2.43;;
5333;SDS011;2689;50.954;7.116;2022-09-29T15:56:34;4.40;;;2.13;;
5333;SDS011;2689;50.954;7.116;2022-09-29T15:59:36;5.53;;;2.20;;
5333;SDS011;2689;50.954;7.116;2022-09-29T16:02:09;7.87;;;2.67;;
5333;SDS011;2689;50.954;7.116;2022-09-29T16:04:42;6.13;;;2.53;;
5333;SDS011;2689;50.954;7.116;2022-09-29T16:07:15;6.20;;;2.50;;
5333;SDS011;2689;50.954;7.116;2022-09-29T16:09:46;3.53;;;2.37;;
5333;SDS011;2689;50.954;7.116;2022-09-29T16:12:13;5.53;;;2.40;;
5333;SDS011;2689;50.954;7.116;2022-09-29T16:14:44;6.93;;;2.40;;
5333;SDS011;2689;50.954;7.116;2022-09-29T16:17:12;7.50;;;2.60;;